sensor_id;sensor_type;location;lat;lon;timestamp;temperature;humidity
33715;DHT22;20043;50.998;4.754;2023-03-23T00:02:28;13.80;99.90
33715;DHT22;20043;50.998;4.754;2023-03-23T00:04:55;13.80;99.90
33715;DHT22;20043;50.998;4.754;2023-03-23T00:07:22;13.80;99.90
33715;DHT22;20043;50.998;4.754;2023-03-23T00:09:49;13.80;99.90
33715;DHT22;20043;50.998;4.754;2023-03-23T00:12:21;13.80;99.90
33715;DHT22;20043;50.998;4.754;2023-03-23T00:15:05;13.80;99.90
33715;DHT22;20043;50.998;4.754;2023-03-23T00:17:31;13.90;99.90
33715;DHT22;20043;50.998;4.754;2023-03-23T00:20:01;13.90;99.90
33715;DHT22;20043;50.998;4.754;2023-03-23T00:22:29;13.80;99.90
33715;DHT22;20043;50.998;4.754;2023-03-23T00:24:55;13.80;99.90
33715;DHT22;20043;50.998;4.754;2023-03-23T00:27:21;13.90;99.90
33715;DHT22;20043;50.998;4.754;2023-03-23T00:29:51;13.90;99.90
33715;DHT22;20043;50.998;4.754;2023-03-23T00:32:24;13.80;99.90
33715;DHT22;20043;50.998;4.754;2023-03-23T00:34:56;13.90;99.90
33715;DHT22;20043;50.998;4.754;2023-03-23T00:37:24;13.90;99.90
33715;DHT22;20043;50.998;4.754;2023-03-23T00:39:50;13.90;99.90
33715;DHT22;20043;50.998;4.754;2023-03-23T00:42:17;13.90;99.90
33715;DHT22;20043;50.998;4.754;2023-03-23T00:44:43;13.90;99.90
33715;DHT22;20043;50.998;4.754;2023-03-23T00:47:11;13.90;99.90
33715;DHT22;20043;50.998;4.754;2023-03-23T00:49:38;13.80;99.90
33715;DHT22;20043;50.998;4.754;2023-03-23T00:52:05;13.80;99.90
33715;DHT22;20043;50.998;4.754;2023-03-23T00:54:31;13.80;99.90
33715;DHT22;20043;50.998;4.754;2023-03-23T00:56:57;13.90;99.90
33715;DHT22;20043;50.998;4.754;2023-03-23T00:59:23;13.90;99.90
33715;DHT22;20043;50.998;4.754;2023-03-23T01:01:49;13.90;99.90
33715;DHT22;20043;50.998;4.754;2023-03-23T01:04:15;13.80;99.90
33715;DHT22;20043;50.998;4.754;2023-03-23T01:06:42;13.80;99.90
33715;DHT22;20043;50.998;4.754;2023-03-23T01:09:12;13.90;99.90
33715;DHT22;20043;50.998;4.754;2023-03-23T01:11:45;13.80;99.90
33715;DHT22;20043;50.998;4.754;2023-03-23T01:14:13;13.80;99.90
33715;DHT22;20043;50.998;4.754;2023-03-23T01:16:39;13.80;99.90
33715;DHT22;20043;50.998;4.754;2023-03-23T01:19:04;13.90;99.90
33715;DHT22;20043;50.998;4.754;2023-03-23T01:21:30;13.80;99.90
33715;DHT22;20043;50.998;4.754;2023-03-23T01:23:56;13.80;99.90
33715;DHT22;20043;50.998;4.754;2023-03-23T01:26:24;13.90;99.90
33715;DHT22;20043;50.998;4.754;2023-03-23T01:28:50;13.80;99.90
33715;DHT22;20043;50.998;4.754;2023-03-23T01:31:18;13.80;99.90
33715;DHT22;20043;50.998;4.754;2023-03-23T01:33:44;13.80;99.90
33715;DHT22;20043;50.998;4.754;2023-03-23T01:36:15;13.80;99.90
33715;DHT22;20043;50.998;4.754;2023-03-23T01:38:43;13.80;99.90
33715;DHT22;20043;50.998;4.754;2023-03-23T01:41:09;13.80;99.90
33715;DHT22;20043;50.998;4.754;2023-03-23T01:43:57;13.90;99.90
33715;DHT22;20043;50.998;4.754;2023-03-23T01:46:26;13.80;99.90
33715;DHT22;20043;50.998;4.754;2023-03-23T01:48:52;13.80;99.90
33715;DHT22;20043;50.998;4.754;2023-03-23T01:51:20;13.90;99.90
33715;DHT22;20043;50.998;4.754;2023-03-23T01:53:50;13.80;99.90
33715;DHT22;20043;50.998;4.754;2023-03-23T01:56:19;13.90;99.90
33715;DHT22;20043;50.998;4.754;2023-03-23T01:58:53;13.80;99.90
33715;DHT22;20043;50.998;4.754;2023-03-23T02:01:21;13.80;99.90
33715;DHT22;20043;50.998;4.754;2023-03-23T02:03:47;13.70;99.90
33715;DHT22;20043;50.998;4.754;2023-03-23T02:06:14;13.80;99.90
33715;DHT22;20043;50.998;4.754;2023-03-23T02:08:41;13.80;99.90
33715;DHT22;20043;50.998;4.754;2023-03-23T02:11:20;13.80;99.90
33715;DHT22;20043;50.998;4.754;2023-03-23T02:13:47;13.80;99.90
33715;DHT22;20043;50.998;4.754;2023-03-23T02:24:58;13.70;99.90
33715;DHT22;20043;50.998;4.754;2023-03-23T02:27:39;13.80;99.90
33715;DHT22;20043;50.998;4.754;2023-03-23T02:30:13;13.80;99.90
33715;DHT22;20043;50.998;4.754;2023-03-23T02:35:56;13.80;99.90
33715;DHT22;20043;50.998;4.754;2023-03-23T02:38:57;13.90;99.90
33715;DHT22;20043;50.998;4.754;2023-03-23T02:41:41;13.80;99.90
33715;DHT22;20043;50.998;4.754;2023-03-23T02:44:07;13.80;99.90
33715;DHT22;20043;50.998;4.754;2023-03-23T02:46:34;13.80;99.90
33715;DHT22;20043;50.998;4.754;2023-03-23T02:49:02;13.70;99.90
33715;DHT22;20043;50.998;4.754;2023-03-23T02:51:29;13.80;99.90
33715;DHT22;20043;50.998;4.754;2023-03-23T02:53:55;13.90;99.90
33715;DHT22;20043;50.998;4.754;2023-03-23T02:56:23;13.80;99.90
33715;DHT22;20043;50.998;4.754;2023-03-23T02:58:50;13.80;99.90
33715;DHT22;20043;50.998;4.754;2023-03-23T03:04:03;13.70;99.90
33715;DHT22;20043;50.998;4.754;2023-03-23T03:06:34;13.70;99.90
33715;DHT22;20043;50.998;4.754;2023-03-23T03:15:24;13.80;99.90
33715;DHT22;20043;50.998;4.754;2023-03-23T03:17:59;13.80;99.90
33715;DHT22;20043;50.998;4.754;2023-03-23T03:20:28;13.90;99.90
33715;DHT22;20043;50.998;4.754;2023-03-23T03:22:55;13.80;99.90
33715;DHT22;20043;50.998;4.754;2023-03-23T03:25:22;13.80;99.90
33715;DHT22;20043;50.998;4.754;2023-03-23T03:27:49;13.90;99.90
33715;DHT22;20043;50.998;4.754;2023-03-23T03:30:21;13.90;99.90
33715;DHT22;20043;50.998;4.754;2023-03-23T03:32:51;13.80;99.90
33715;DHT22;20043;50.998;4.754;2023-03-23T03:35:20;13.80;99.90
33715;DHT22;20043;50.998;4.754;2023-03-23T03:37:47;13.70;99.90
33715;DHT22;20043;50.998;4.754;2023-03-23T03:40:16;13.80;99.90
33715;DHT22;20043;50.998;4.754;2023-03-23T03:42:44;13.90;99.90
33715;DHT22;20043;50.998;4.754;2023-03-23T03:45:13;14.00;99.90
33715;DHT22;20043;50.998;4.754;2023-03-23T03:47:39;14.00;99.90
33715;DHT22;20043;50.998;4.754;2023-03-23T03:50:05;13.90;99.90
33715;DHT22;20043;50.998;4.754;2023-03-23T03:52:32;13.80;99.90
33715;DHT22;20043;50.998;4.754;2023-03-23T03:54:57;13.80;99.90
33715;DHT22;20043;50.998;4.754;2023-03-23T03:57:24;13.80;99.90
33715;DHT22;20043;50.998;4.754;2023-03-23T03:59:50;13.80;99.90
33715;DHT22;20043;50.998;4.754;2023-03-23T04:02:16;13.80;99.90
33715;DHT22;20043;50.998;4.754;2023-03-23T04:04:46;13.80;99.90
33715;DHT22;20043;50.998;4.754;2023-03-23T04:07:12;13.90;99.90
33715;DHT22;20043;50.998;4.754;2023-03-23T04:09:40;13.90;99.90
33715;DHT22;20043;50.998;4.754;2023-03-23T04:12:05;13.80;99.90
33715;DHT22;20043;50.998;4.754;2023-03-23T04:14:31;13.70;99.90
33715;DHT22;20043;50.998;4.754;2023-03-23T04:16:57;13.70;99.90
33715;DHT22;20043;50.998;4.754;2023-03-23T04:19:24;13.60;99.90
33715;DHT22;20043;50.998;4.754;2023-03-23T04:21:50;13.60;99.90
33715;DHT22;20043;50.998;4.754;2023-03-23T04:24:16;13.60;99.90
33715;DHT22;20043;50.998;4.754;2023-03-23T04:26:42;13.60;99.90
33715;DHT22;20043;50.998;4.754;2023-03-23T04:29:10;13.60;99.90
33715;DHT22;20043;50.998;4.754;2023-03-23T04:31:38;13.60;99.90
33715;DHT22;20043;50.998;4.754;2023-03-23T04:34:04;13.60;99.90
33715;DHT22;20043;50.998;4.754;2023-03-23T04:36:29;13.60;99.90
33715;DHT22;20043;50.998;4.754;2023-03-23T04:38:55;13.70;99.90
33715;DHT22;20043;50.998;4.754;2023-03-23T04:41:22;13.60;99.90
33715;DHT22;20043;50.998;4.754;2023-03-23T04:43:48;13.60;99.90
33715;DHT22;20043;50.998;4.754;2023-03-23T04:46:18;13.60;99.90
33715;DHT22;20043;50.998;4.754;2023-03-23T04:48:45;13.50;99.90
33715;DHT22;20043;50.998;4.754;2023-03-23T04:51:11;13.60;99.90
33715;DHT22;20043;50.998;4.754;2023-03-23T04:53:40;13.60;99.90
33715;DHT22;20043;50.998;4.754;2023-03-23T04:56:06;13.60;99.90
33715;DHT22;20043;50.998;4.754;2023-03-23T04:58:32;13.60;99.90
33715;DHT22;20043;50.998;4.754;2023-03-23T05:00:59;13.60;99.90
33715;DHT22;20043;50.998;4.754;2023-03-23T05:03:25;13.60;99.90
33715;DHT22;20043;50.998;4.754;2023-03-23T05:05:52;13.70;99.90
33715;DHT22;20043;50.998;4.754;2023-03-23T05:08:23;13.60;99.90
33715;DHT22;20043;50.998;4.754;2023-03-23T05:10:54;13.60;99.90
33715;DHT22;20043;50.998;4.754;2023-03-23T05:13:21;13.70;99.90
33715;DHT22;20043;50.998;4.754;2023-03-23T05:15:47;13.60;99.90
33715;DHT22;20043;50.998;4.754;2023-03-23T05:18:13;13.60;99.90
33715;DHT22;20043;50.998;4.754;2023-03-23T05:20:40;13.70;99.90
33715;DHT22;20043;50.998;4.754;2023-03-23T05:23:08;13.50;99.90
33715;DHT22;20043;50.998;4.754;2023-03-23T05:25:34;13.50;99.90
33715;DHT22;20043;50.998;4.754;2023-03-23T05:28:03;13.50;99.90
33715;DHT22;20043;50.998;4.754;2023-03-23T05:30:29;13.50;99.90
33715;DHT22;20043;50.998;4.754;2023-03-23T05:32:55;13.50;99.90
33715;DHT22;20043;50.998;4.754;2023-03-23T05:35:20;13.50;99.90
33715;DHT22;20043;50.998;4.754;2023-03-23T05:37:46;13.50;99.90
33715;DHT22;20043;50.998;4.754;2023-03-23T05:40:12;13.40;99.90
33715;DHT22;20043;50.998;4.754;2023-03-23T05:42:40;13.40;99.90
33715;DHT22;20043;50.998;4.754;2023-03-23T05:45:08;13.40;99.90
33715;DHT22;20043;50.998;4.754;2023-03-23T05:47:34;13.40;99.90
33715;DHT22;20043;50.998;4.754;2023-03-23T05:50:00;13.40;99.90
33715;DHT22;20043;50.998;4.754;2023-03-23T05:52:26;13.50;99.90
33715;DHT22;20043;50.998;4.754;2023-03-23T05:54:52;13.50;99.90
33715;DHT22;20043;50.998;4.754;2023-03-23T05:57:18;13.40;99.90
33715;DHT22;20043;50.998;4.754;2023-03-23T05:59:47;13.30;99.90
33715;DHT22;20043;50.998;4.754;2023-03-23T06:02:13;13.30;99.90
33715;DHT22;20043;50.998;4.754;2023-03-23T06:04:40;13.30;99.90
33715;DHT22;20043;50.998;4.754;2023-03-23T06:07:06;13.20;99.90
33715;DHT22;20043;50.998;4.754;2023-03-23T06:09:32;13.20;99.90
33715;DHT22;20043;50.998;4.754;2023-03-23T06:11:58;13.20;99.90
33715;DHT22;20043;50.998;4.754;2023-03-23T06:14:24;13.20;99.90
33715;DHT22;20043;50.998;4.754;2023-03-23T06:16:49;13.20;99.90
33715;DHT22;20043;50.998;4.754;2023-03-23T06:19:15;13.20;99.90
33715;DHT22;20043;50.998;4.754;2023-03-23T06:21:42;13.10;99.90
33715;DHT22;20043;50.998;4.754;2023-03-23T06:24:08;13.20;99.90
33715;DHT22;20043;50.998;4.754;2023-03-23T06:26:36;13.20;99.90
33715;DHT22;20043;50.998;4.754;2023-03-23T06:29:04;13.20;99.90
33715;DHT22;20043;50.998;4.754;2023-03-23T06:31:41;13.20;99.90
33715;DHT22;20043;50.998;4.754;2023-03-23T06:34:08;13.20;99.90
33715;DHT22;20043;50.998;4.754;2023-03-23T06:36:35;13.30;99.90
33715;DHT22;20043;50.998;4.754;2023-03-23T06:39:02;13.30;99.90
33715;DHT22;20043;50.998;4.754;2023-03-23T06:41:30;13.30;99.90
33715;DHT22;20043;50.998;4.754;2023-03-23T06:43:56;13.40;99.90
33715;DHT22;20043;50.998;4.754;2023-03-23T06:46:22;13.40;99.90
33715;DHT22;20043;50.998;4.754;2023-03-23T06:48:47;13.30;99.90
33715;DHT22;20043;50.998;4.754;2023-03-23T06:51:15;13.40;99.90
33715;DHT22;20043;50.998;4.754;2023-03-23T06:53:41;13.30;99.90
33715;DHT22;20043;50.998;4.754;2023-03-23T06:56:07;13.40;99.90
33715;DHT22;20043;50.998;4.754;2023-03-23T06:58:33;13.40;99.90
33715;DHT22;20043;50.998;4.754;2023-03-23T07:00:59;13.30;99.90
33715;DHT22;20043;50.998;4.754;2023-03-23T07:03:24;13.30;99.90
33715;DHT22;20043;50.998;4.754;2023-03-23T07:05:51;13.30;99.90
33715;DHT22;20043;50.998;4.754;2023-03-23T07:08:17;13.30;99.90
33715;DHT22;20043;50.998;4.754;2023-03-23T07:10:42;13.40;99.90
33715;DHT22;20043;50.998;4.754;2023-03-23T07:13:15;13.60;99.90
33715;DHT22;20043;50.998;4.754;2023-03-23T07:15:41;13.60;99.90
33715;DHT22;20043;50.998;4.754;2023-03-23T07:18:06;13.50;99.90
33715;DHT22;20043;50.998;4.754;2023-03-23T07:20:32;13.10;99.90
33715;DHT22;20043;50.998;4.754;2023-03-23T07:22:58;12.70;99.90
33715;DHT22;20043;50.998;4.754;2023-03-23T07:25:23;12.50;99.90
33715;DHT22;20043;50.998;4.754;2023-03-23T07:27:49;12.30;99.90
33715;DHT22;20043;50.998;4.754;2023-03-23T07:30:14;12.20;99.90
33715;DHT22;20043;50.998;4.754;2023-03-23T07:32:41;12.10;99.90
33715;DHT22;20043;50.998;4.754;2023-03-23T07:35:08;12.00;99.90
33715;DHT22;20043;50.998;4.754;2023-03-23T07:37:34;11.80;99.90
33715;DHT22;20043;50.998;4.754;2023-03-23T07:40:01;11.80;99.90
33715;DHT22;20043;50.998;4.754;2023-03-23T07:42:42;11.60;99.90
33715;DHT22;20043;50.998;4.754;2023-03-23T07:45:12;11.50;99.90
33715;DHT22;20043;50.998;4.754;2023-03-23T07:47:39;11.40;99.90
33715;DHT22;20043;50.998;4.754;2023-03-23T07:50:06;11.30;99.90
33715;DHT22;20043;50.998;4.754;2023-03-23T07:52:32;11.30;99.90
33715;DHT22;20043;50.998;4.754;2023-03-23T07:54:58;11.30;99.90
33715;DHT22;20043;50.998;4.754;2023-03-23T07:57:24;11.10;99.90
33715;DHT22;20043;50.998;4.754;2023-03-23T07:59:49;11.10;99.90
33715;DHT22;20043;50.998;4.754;2023-03-23T08:02:15;11.20;99.90
33715;DHT22;20043;50.998;4.754;2023-03-23T08:04:40;11.20;99.90
33715;DHT22;20043;50.998;4.754;2023-03-23T08:07:07;11.30;99.90
33715;DHT22;20043;50.998;4.754;2023-03-23T08:09:33;11.40;99.90
33715;DHT22;20043;50.998;4.754;2023-03-23T08:11:59;11.40;99.90
33715;DHT22;20043;50.998;4.754;2023-03-23T08:14:24;11.50;99.90
33715;DHT22;20043;50.998;4.754;2023-03-23T08:16:53;11.60;99.90
33715;DHT22;20043;50.998;4.754;2023-03-23T08:19:20;11.70;99.90
33715;DHT22;20043;50.998;4.754;2023-03-23T08:21:46;11.70;99.90
33715;DHT22;20043;50.998;4.754;2023-03-23T08:24:11;11.80;99.90
33715;DHT22;20043;50.998;4.754;2023-03-23T08:26:38;11.90;99.90
33715;DHT22;20043;50.998;4.754;2023-03-23T08:29:04;11.90;99.90
33715;DHT22;20043;50.998;4.754;2023-03-23T08:31:29;12.10;99.90
33715;DHT22;20043;50.998;4.754;2023-03-23T08:33:55;12.10;99.90
33715;DHT22;20043;50.998;4.754;2023-03-23T08:36:23;12.20;99.90
33715;DHT22;20043;50.998;4.754;2023-03-23T08:38:49;12.10;99.90
33715;DHT22;20043;50.998;4.754;2023-03-23T08:41:17;12.10;99.90
33715;DHT22;20043;50.998;4.754;2023-03-23T08:43:43;12.00;99.90
33715;DHT22;20043;50.998;4.754;2023-03-23T08:46:09;12.00;99.90
33715;DHT22;20043;50.998;4.754;2023-03-23T08:48:37;12.00;99.90
33715;DHT22;20043;50.998;4.754;2023-03-23T08:51:05;12.00;99.90
33715;DHT22;20043;50.998;4.754;2023-03-23T08:53:32;11.90;99.90
33715;DHT22;20043;50.998;4.754;2023-03-23T08:56:09;11.80;99.90
33715;DHT22;20043;50.998;4.754;2023-03-23T08:58:36;11.70;99.90
33715;DHT22;20043;50.998;4.754;2023-03-23T09:01:03;11.80;99.90
33715;DHT22;20043;50.998;4.754;2023-03-23T09:03:31;11.90;99.90
33715;DHT22;20043;50.998;4.754;2023-03-23T09:06:02;12.10;99.90
33715;DHT22;20043;50.998;4.754;2023-03-23T09:08:29;12.10;99.90
33715;DHT22;20043;50.998;4.754;2023-03-23T09:10:58;12.10;99.90
33715;DHT22;20043;50.998;4.754;2023-03-23T09:13:24;12.10;99.90
33715;DHT22;20043;50.998;4.754;2023-03-23T09:15:49;12.00;99.90
33715;DHT22;20043;50.998;4.754;2023-03-23T09:18:16;12.00;99.90
33715;DHT22;20043;50.998;4.754;2023-03-23T09:20:42;12.10;99.90
33715;DHT22;20043;50.998;4.754;2023-03-23T09:23:09;12.20;99.90
33715;DHT22;20043;50.998;4.754;2023-03-23T09:25:35;12.20;99.90
33715;DHT22;20043;50.998;4.754;2023-03-23T09:28:00;12.30;99.90
33715;DHT22;20043;50.998;4.754;2023-03-23T09:30:31;12.50;99.90
33715;DHT22;20043;50.998;4.754;2023-03-23T09:32:59;12.50;99.90
33715;DHT22;20043;50.998;4.754;2023-03-23T09:35:26;12.40;99.90
33715;DHT22;20043;50.998;4.754;2023-03-23T09:37:54;12.30;99.90
33715;DHT22;20043;50.998;4.754;2023-03-23T09:40:25;12.30;99.90
33715;DHT22;20043;50.998;4.754;2023-03-23T09:46:08;12.30;99.90
33715;DHT22;20043;50.998;4.754;2023-03-23T09:53:57;12.40;99.90
33715;DHT22;20043;50.998;4.754;2023-03-23T09:56:25;12.50;99.90
33715;DHT22;20043;50.998;4.754;2023-03-23T09:59:07;12.60;99.90
33715;DHT22;20043;50.998;4.754;2023-03-23T10:01:44;12.70;99.90
33715;DHT22;20043;50.998;4.754;2023-03-23T10:04:39;12.50;99.90
33715;DHT22;20043;50.998;4.754;2023-03-23T10:07:15;12.50;99.90
33715;DHT22;20043;50.998;4.754;2023-03-23T10:09:43;12.40;99.90
33715;DHT22;20043;50.998;4.754;2023-03-23T10:18:04;12.80;99.90
33715;DHT22;20043;50.998;4.754;2023-03-23T10:20:55;12.80;99.90
33715;DHT22;20043;50.998;4.754;2023-03-23T10:26:21;13.20;99.90
33715;DHT22;20043;50.998;4.754;2023-03-23T10:28:52;13.30;99.90
33715;DHT22;20043;50.998;4.754;2023-03-23T10:31:24;13.40;99.90
33715;DHT22;20043;50.998;4.754;2023-03-23T10:33:53;13.60;99.90
33715;DHT22;20043;50.998;4.754;2023-03-23T10:36:40;13.90;99.90
33715;DHT22;20043;50.998;4.754;2023-03-23T10:39:13;13.80;99.90
33715;DHT22;20043;50.998;4.754;2023-03-23T10:41:41;14.00;99.90
33715;DHT22;20043;50.998;4.754;2023-03-23T10:44:24;14.10;99.90
33715;DHT22;20043;50.998;4.754;2023-03-23T10:46:59;14.20;99.90
33715;DHT22;20043;50.998;4.754;2023-03-23T10:49:30;14.30;99.90
33715;DHT22;20043;50.998;4.754;2023-03-23T10:52:30;14.30;99.90
33715;DHT22;20043;50.998;4.754;2023-03-23T10:55:18;14.40;99.90
33715;DHT22;20043;50.998;4.754;2023-03-23T10:58:06;14.30;99.90
33715;DHT22;20043;50.998;4.754;2023-03-23T11:00:43;14.20;99.90
33715;DHT22;20043;50.998;4.754;2023-03-23T11:05:45;14.50;99.90
33715;DHT22;20043;50.998;4.754;2023-03-23T11:08:21;14.30;99.90
33715;DHT22;20043;50.998;4.754;2023-03-23T11:10:53;14.30;99.90
33715;DHT22;20043;50.998;4.754;2023-03-23T11:13:21;14.20;99.90
33715;DHT22;20043;50.998;4.754;2023-03-23T11:15:49;14.20;99.90
33715;DHT22;20043;50.998;4.754;2023-03-23T11:18:24;14.30;99.90
33715;DHT22;20043;50.998;4.754;2023-03-23T11:20:53;14.40;99.90
33715;DHT22;20043;50.998;4.754;2023-03-23T11:23:23;14.50;99.90
33715;DHT22;20043;50.998;4.754;2023-03-23T11:28:33;14.70;99.90
33715;DHT22;20043;50.998;4.754;2023-03-23T11:31:03;14.90;99.90
33715;DHT22;20043;50.998;4.754;2023-03-23T11:33:54;15.00;99.90
33715;DHT22;20043;50.998;4.754;2023-03-23T11:36:20;15.00;99.90
33715;DHT22;20043;50.998;4.754;2023-03-23T11:38:53;15.00;99.90
33715;DHT22;20043;50.998;4.754;2023-03-23T11:41:22;15.00;99.90
33715;DHT22;20043;50.998;4.754;2023-03-23T11:43:52;15.10;99.90
33715;DHT22;20043;50.998;4.754;2023-03-23T11:49:01;15.00;99.90
33715;DHT22;20043;50.998;4.754;2023-03-23T11:51:45;15.10;99.90
33715;DHT22;20043;50.998;4.754;2023-03-23T11:54:30;15.30;99.90
33715;DHT22;20043;50.998;4.754;2023-03-23T11:56:57;15.30;99.90
33715;DHT22;20043;50.998;4.754;2023-03-23T11:59:34;15.30;99.90
33715;DHT22;20043;50.998;4.754;2023-03-23T12:07:45;15.80;99.90
33715;DHT22;20043;50.998;4.754;2023-03-23T12:10:32;16.00;99.90
33715;DHT22;20043;50.998;4.754;2023-03-23T12:19:03;16.00;99.90
33715;DHT22;20043;50.998;4.754;2023-03-23T12:21:49;16.00;99.90
33715;DHT22;20043;50.998;4.754;2023-03-23T12:24:31;16.00;99.90
33715;DHT22;20043;50.998;4.754;2023-03-23T12:27:54;16.00;99.90
33715;DHT22;20043;50.998;4.754;2023-03-23T12:33:30;16.00;99.90
33715;DHT22;20043;50.998;4.754;2023-03-23T12:44:46;16.50;99.90
33715;DHT22;20043;50.998;4.754;2023-03-23T12:47:35;16.80;99.90
33715;DHT22;20043;50.998;4.754;2023-03-23T12:50:35;16.60;99.90
33715;DHT22;20043;50.998;4.754;2023-03-23T12:53:18;16.60;99.90
33715;DHT22;20043;50.998;4.754;2023-03-23T12:58:26;16.50;99.90
33715;DHT22;20043;50.998;4.754;2023-03-23T13:03:32;16.50;99.90
33715;DHT22;20043;50.998;4.754;2023-03-23T13:08:41;16.60;99.90
33715;DHT22;20043;50.998;4.754;2023-03-23T13:11:15;16.50;99.90
33715;DHT22;20043;50.998;4.754;2023-03-23T13:13:56;16.60;99.90
33715;DHT22;20043;50.998;4.754;2023-03-23T13:16:35;16.80;99.90
33715;DHT22;20043;50.998;4.754;2023-03-23T13:22:17;16.80;99.90
33715;DHT22;20043;50.998;4.754;2023-03-23T13:24:53;16.60;99.90
33715;DHT22;20043;50.998;4.754;2023-03-23T13:27:25;16.50;99.90
33715;DHT22;20043;50.998;4.754;2023-03-23T13:29:53;16.20;99.90
33715;DHT22;20043;50.998;4.754;2023-03-23T13:32:20;16.20;99.90
33715;DHT22;20043;50.998;4.754;2023-03-23T13:34:53;16.10;99.90
33715;DHT22;20043;50.998;4.754;2023-03-23T13:37:22;16.30;99.90
33715;DHT22;20043;50.998;4.754;2023-03-23T13:42:30;16.80;99.90
33715;DHT22;20043;50.998;4.754;2023-03-23T13:47:47;17.10;99.90
33715;DHT22;20043;50.998;4.754;2023-03-23T13:52:51;17.10;99.90
33715;DHT22;20043;50.998;4.754;2023-03-23T14:05:51;17.20;99.90
33715;DHT22;20043;50.998;4.754;2023-03-23T14:08:21;17.30;99.90
33715;DHT22;20043;50.998;4.754;2023-03-23T14:10:54;17.10;99.90
33715;DHT22;20043;50.998;4.754;2023-03-23T14:13:32;17.00;99.90
33715;DHT22;20043;50.998;4.754;2023-03-23T14:16:04;16.80;99.90
33715;DHT22;20043;50.998;4.754;2023-03-23T14:18:38;16.70;99.90
33715;DHT22;20043;50.998;4.754;2023-03-23T14:21:06;16.70;99.90
33715;DHT22;20043;50.998;4.754;2023-03-23T14:23:35;16.80;99.90
33715;DHT22;20043;50.998;4.754;2023-03-23T14:26:12;17.00;99.90
33715;DHT22;20043;50.998;4.754;2023-03-23T14:28:42;17.00;99.90
33715;DHT22;20043;50.998;4.754;2023-03-23T14:31:27;16.80;99.90
33715;DHT22;20043;50.998;4.754;2023-03-23T14:33:54;16.50;99.90
33715;DHT22;20043;50.998;4.754;2023-03-23T14:36:27;16.40;99.90
33715;DHT22;20043;50.998;4.754;2023-03-23T14:39:20;16.40;99.90
33715;DHT22;20043;50.998;4.754;2023-03-23T14:41:47;16.30;99.90
33715;DHT22;20043;50.998;4.754;2023-03-23T14:44:19;16.30;99.90
33715;DHT22;20043;50.998;4.754;2023-03-23T14:46:45;16.40;99.90
33715;DHT22;20043;50.998;4.754;2023-03-23T14:49:15;16.50;99.90
33715;DHT22;20043;50.998;4.754;2023-03-23T14:51:53;16.60;99.90
33715;DHT22;20043;50.998;4.754;2023-03-23T14:54:24;16.70;99.90
33715;DHT22;20043;50.998;4.754;2023-03-23T14:56:50;16.70;99.90
33715;DHT22;20043;50.998;4.754;2023-03-23T14:59:17;16.70;99.90
33715;DHT22;20043;50.998;4.754;2023-03-23T15:01:43;16.70;99.90
33715;DHT22;20043;50.998;4.754;2023-03-23T15:04:21;16.60;99.90
33715;DHT22;20043;50.998;4.754;2023-03-23T15:07:02;16.60;99.90
33715;DHT22;20043;50.998;4.754;2023-03-23T15:09:29;16.60;99.90
33715;DHT22;20043;50.998;4.754;2023-03-23T15:12:01;16.50;99.90
33715;DHT22;20043;50.998;4.754;2023-03-23T15:14:44;16.50;99.90
33715;DHT22;20043;50.998;4.754;2023-03-23T15:17:27;16.30;99.90
33715;DHT22;20043;50.998;4.754;2023-03-23T15:19:54;16.30;99.90
33715;DHT22;20043;50.998;4.754;2023-03-23T15:22:24;16.10;99.90
33715;DHT22;20043;50.998;4.754;2023-03-23T15:24:53;16.00;99.90
33715;DHT22;20043;50.998;4.754;2023-03-23T15:27:32;16.00;99.90
33715;DHT22;20043;50.998;4.754;2023-03-23T15:30:00;16.00;99.90
33715;DHT22;20043;50.998;4.754;2023-03-23T15:32:31;15.90;99.90
33715;DHT22;20043;50.998;4.754;2023-03-23T15:35:09;16.00;99.90
33715;DHT22;20043;50.998;4.754;2023-03-23T15:37:43;16.10;99.90
33715;DHT22;20043;50.998;4.754;2023-03-23T15:40:17;16.10;99.90
33715;DHT22;20043;50.998;4.754;2023-03-23T15:42:43;16.20;99.90
33715;DHT22;20043;50.998;4.754;2023-03-23T15:47:46;16.50;99.90
33715;DHT22;20043;50.998;4.754;2023-03-23T15:52:38;16.30;99.90
33715;DHT22;20043;50.998;4.754;2023-03-23T15:55:19;16.10;99.90
33715;DHT22;20043;50.998;4.754;2023-03-23T15:57:45;16.00;99.90
33715;DHT22;20043;50.998;4.754;2023-03-23T16:00:11;16.00;99.90
33715;DHT22;20043;50.998;4.754;2023-03-23T16:02:37;15.90;99.90
33715;DHT22;20043;50.998;4.754;2023-03-23T16:05:03;16.00;99.90
33715;DHT22;20043;50.998;4.754;2023-03-23T16:07:29;16.10;99.90
33715;DHT22;20043;50.998;4.754;2023-03-23T16:09:55;16.20;99.90
33715;DHT22;20043;50.998;4.754;2023-03-23T16:12:21;16.10;99.90
33715;DHT22;20043;50.998;4.754;2023-03-23T16:14:47;16.10;99.90
33715;DHT22;20043;50.998;4.754;2023-03-23T16:17:16;16.10;99.90
33715;DHT22;20043;50.998;4.754;2023-03-23T16:19:42;16.10;99.90
33715;DHT22;20043;50.998;4.754;2023-03-23T16:22:08;16.10;99.90
33715;DHT22;20043;50.998;4.754;2023-03-23T16:24:34;16.00;99.90
33715;DHT22;20043;50.998;4.754;2023-03-23T16:27:00;15.90;99.90
33715;DHT22;20043;50.998;4.754;2023-03-23T16:29:25;16.00;99.90
33715;DHT22;20043;50.998;4.754;2023-03-23T16:31:52;15.90;99.90
33715;DHT22;20043;50.998;4.754;2023-03-23T16:34:17;16.10;99.90
33715;DHT22;20043;50.998;4.754;2023-03-23T16:36:43;16.10;99.90
33715;DHT22;20043;50.998;4.754;2023-03-23T16:39:10;16.10;99.90
33715;DHT22;20043;50.998;4.754;2023-03-23T16:41:36;15.90;99.90
33715;DHT22;20043;50.998;4.754;2023-03-23T16:44:04;15.90;99.90
33715;DHT22;20043;50.998;4.754;2023-03-23T16:46:31;15.90;99.90
33715;DHT22;20043;50.998;4.754;2023-03-23T16:48:56;15.90;99.90
33715;DHT22;20043;50.998;4.754;2023-03-23T16:51:22;16.00;99.90
33715;DHT22;20043;50.998;4.754;2023-03-23T16:53:47;16.00;99.90
33715;DHT22;20043;50.998;4.754;2023-03-23T16:56:13;16.00;99.90
33715;DHT22;20043;50.998;4.754;2023-03-23T16:58:39;15.80;99.90
33715;DHT22;20043;50.998;4.754;2023-03-23T17:01:06;15.70;99.90
33715;DHT22;20043;50.998;4.754;2023-03-23T17:03:32;15.70;99.90
33715;DHT22;20043;50.998;4.754;2023-03-23T17:05:59;15.70;99.90
33715;DHT22;20043;50.998;4.754;2023-03-23T17:08:26;15.60;99.90
33715;DHT22;20043;50.998;4.754;2023-03-23T17:10:51;15.50;99.90
33715;DHT22;20043;50.998;4.754;2023-03-23T17:13:17;15.60;99.90
33715;DHT22;20043;50.998;4.754;2023-03-23T17:15:44;15.50;99.90
33715;DHT22;20043;50.998;4.754;2023-03-23T17:18:09;15.60;99.90
33715;DHT22;20043;50.998;4.754;2023-03-23T17:20:35;15.60;99.90
33715;DHT22;20043;50.998;4.754;2023-03-23T17:23:02;15.60;99.90
33715;DHT22;20043;50.998;4.754;2023-03-23T17:25:28;15.60;99.90
33715;DHT22;20043;50.998;4.754;2023-03-23T17:27:55;15.60;99.90
33715;DHT22;20043;50.998;4.754;2023-03-23T17:30:21;15.60;99.90